Latest Weather Observations for Kiama

IDN60801

Issued at 9:35 am EST Thursday 2 October 2014 (issued every 30 minutes, with the page automatically refreshed every 10 minutes)

About weather observations | Map of weather stations | Latest weather observations for NSW | Other Formats
Station Details ID: 068242 Name: KIAMA (BOMBO HEADLAND) Lat: -34.65 Lon: 150.86 Height: 15.5 m
Data from the previous 72 hours. | See also: Recent months at Kiama
Date/Time
EST
Temp
°C
App
Temp
°C
Dew
Point
Rel
Hum
%
Delta-T
°C
Wind Press
QNH
hPa
Press
MSL
hPa
Rain
since 9 am
mm
Dir
 
Spd
km/h
Gust
km/h
Spd
kts
Gust
kts
02/09:30am 17.2 15.1 6.7 50 5.2 SE 7 9 4 5 - - 0.0
02/09:00am 16.7 14.4 5.6 48 5.4 E 7 9 4 5 - - 0.0
02/08:30am 16.4 14.5 6.5 52 4.9 E 6 7 3 4 - - 0.0
02/08:00am 15.6 13.6 6.1 53 4.6 NE 6 7 3 4 - - 0.0
02/07:30am 15.0 13.7 5.8 54 4.4 NNE 2 6 1 3 - - 0.0
02/07:00am 14.0 11.9 5.6 57 4.0 N 6 9 3 5 - - 0.0
02/06:30am 12.1 9.8 5.7 65 3.0 NW 7 9 4 5 - - 0.0
02/06:00am 11.1 8.4 5.8 70 2.5 NW 9 13 5 7 - - 0.0
02/05:30am 10.2 6.7 5.6 73 2.1 W 13 15 7 8 - - 0.0
02/05:00am 10.2 7.1 5.4 72 2.2 W 11 15 6 8 - - 0.0
02/04:30am 10.3 7.2 5.5 72 2.2 W 11 13 6 7 - - 0.0
02/04:00am 10.7 8.0 5.7 71 2.3 W 9 11 5 6 - - 0.0
02/03:30am 10.7 8.0 5.5 70 2.4 W 9 11 5 6 - - 0.0
02/03:00am 11.0 8.3 5.5 69 2.5 W 9 11 5 6 - - 0.0
02/02:30am 11.1 8.0 5.6 69 2.5 WNW 11 13 6 7 - - 0.0
02/02:00am 10.9 7.8 5.4 69 2.5 WNW 11 13 6 7 - - 0.0
02/01:30am 11.2 8.1 5.5 68 2.6 W 11 13 6 7 - - 0.0
02/01:00am 11.1 8.4 5.4 68 2.6 W 9 13 5 7 - - 0.0
02/12:30am 11.4 8.6 5.3 66 2.8 W 9 13 5 7 - - 0.0
02/12:00am 11.3 9.5 5.4 67 2.7 W 4 7 2 4 - - 0.0
 
Date/Time
EST
Temp
°C
App
Temp
°C
Dew
Point
Rel
Hum
%
Delta-T
°C
Wind Press
QNH
hPa
Press
MSL
hPa
Rain
since 9 am
mm
Dir
 
Spd
km/h
Gust
km/h
Spd
kts
Gust
kts
01/11:30pm 11.7 8.9 5.3 65 2.9 W 9 13 5 7 - - 0.0
01/11:00pm 12.2 9.6 6.0 66 2.9 SW 9 13 5 7 - - 0.0
01/10:30pm 12.5 9.7 5.0 60 3.5 WSW 9 11 5 6 - - 0.0
01/10:00pm 13.4 10.5 6.3 62 3.4 SW 11 17 6 9 - - 0.0
01/09:30pm 12.7 9.5 5.1 60 3.5 W 11 17 6 9 - - 0.0
01/09:00pm 12.7 9.9 5.1 60 3.5 W 9 11 5 6 - - 0.0
01/08:30pm 13.5 10.4 5.7 59 3.7 WSW 11 15 6 8 - - 0.0
01/08:00pm 13.5 10.8 5.7 59 3.7 WSW 9 13 5 7 - - 0.0
01/07:30pm 14.3 10.2 6.2 58 3.9 SSW 17 22 9 12 - - 0.0
01/07:00pm 14.8 11.9 6.4 57 4.1 SSW 11 17 6 9 - - 0.0
01/06:30pm 15.2 10.7 6.2 55 4.3 SSW 19 22 10 12 - - 0.0
01/06:00pm 15.5 9.6 5.7 52 4.7 S 26 35 14 19 - - 0.0
01/05:30pm 15.8 10.6 5.7 51 4.8 S 22 28 12 15 - - 0.0
01/05:00pm 16.0 9.5 6.4 53 4.7 S 30 41 16 22 - - 0.0
01/04:30pm 16.3 10.4 5.9 50 5.0 S 26 35 14 19 - - 0.0
01/04:00pm 16.3 10.0 5.6 49 5.1 SSE 28 35 15 19 - - 0.0
01/03:30pm 16.1 9.1 6.0 51 4.9 S 32 39 17 21 - - 0.0
01/03:00pm 16.1 8.8 5.4 49 5.1 SSE 33 41 18 22 - - 0.0
01/02:30pm 16.3 8.9 5.0 47 5.4 S 33 41 18 22 - - 0.0
01/02:00pm 16.4 9.5 6.5 52 4.9 SSE 32 41 17 22 - - 0.0
01/01:30pm 16.5 8.8 5.5 48 5.3 SSE 35 43 19 23 - - 0.0
01/01:00pm 16.4 8.5 4.1 44 5.7 S 35 48 19 26 - - 0.0
01/12:30pm 16.4 9.2 4.8 46 5.5 S 32 43 17 23 - - 0.0
01/12:00pm 16.7 9.3 5.0 46 5.6 S 33 44 18 24 - - 0.0
01/11:30am 17.7 9.5 0.4 31 7.6 SSW 33 52 18 28 - - 0.0
01/11:08am 17.8 10.5 0.0 30 7.7 SW 28 46 15 25 - - 0.0
01/11:00am 17.4 9.1 -1.8 27 8.0 SW 32 44 17 24 - - 0.0
01/10:40am 17.1 8.2 0.7 33 7.2 SSW 37 56 20 30 - - 0.0
01/10:30am 17.1 8.8 -0.6 30 7.5 SSW 33 48 18 26 - - 0.0
01/10:06am 16.4 7.7 -0.3 32 7.1 SW 35 56 19 30 - - 0.0
01/10:00am 16.2 6.9 -1.8 29 7.4 SW 37 56 20 30 - - 0.0
01/09:41am 16.4 7.7 -0.3 32 7.1 SSW 35 56 19 30 - - 0.0
01/09:30am 16.2 6.8 -0.1 33 6.9 SW 39 54 21 29 - - 0.0
01/09:05am 15.8 7.1 -0.8 32 6.9 SW 35 61 19 33 - - 0.0
01/09:00am 15.7 6.9 -0.9 32 6.9 SW 35 50 19 27 - - 0.0
01/08:35am 15.4 8.0 -0.8 33 6.7 SW 28 61 15 33 - - 0.0
01/08:30am 15.5 8.6 0.1 35 6.5 SW 26 43 14 23 - - 0.0
01/08:00am 14.7 6.7 0.2 37 6.1 WSW 32 52 17 28 - - 0.0
01/07:34am 14.5 7.1 -0.8 35 6.3 WSW 28 52 15 28 - - 0.0
01/07:30am 14.5 7.8 -0.8 35 6.3 WSW 24 52 13 28 - - 0.0
01/07:03am 14.1 5.8 0.0 38 5.9 WSW 33 52 18 28 - - 0.0
01/07:00am 14.1 5.0 -0.4 37 6.0 W 37 52 20 28 - - 0.0
01/06:41am 13.9 6.7 0.5 40 5.7 WSW 28 46 15 25 - - 0.0
01/06:30am 13.8 5.6 0.1 39 5.7 W 33 50 18 27 - - 0.0
01/06:05am 13.8 6.6 0.8 41 5.5 WSW 28 50 15 27 - - 0.0
01/06:00am 13.8 7.7 0.5 40 5.6 WSW 22 39 12 21 - - 0.0
01/05:30am 14.0 8.3 0.3 39 5.8 WSW 20 35 11 19 - - 0.0
01/05:00am 13.7 11.1 7.9 68 2.9 WSW 11 22 6 12 - - 0.0
01/04:30am 13.2 12.7 9.5 78 1.9 NW 2 6 1 3 - - 0.0
01/04:00am 14.0 11.6 10.2 78 2.0 S 13 19 7 10 - - 0.0
01/03:30am 14.4 10.4 10.4 77 2.1 S 22 26 12 14 - - 0.0
01/03:00am 14.7 8.2 10.3 75 2.3 S 35 43 19 23 - - 0.0
01/02:34am 15.8 9.1 11.0 73 2.6 S 37 56 20 30 - - 0.0
01/02:30am 16.2 9.2 11.2 72 2.7 S 39 56 21 30 - - 0.0
01/02:19am 18.2 10.1 10.1 59 4.3 S 43 52 23 28 - - 0.0
01/02:00am 19.8 15.4 6.5 42 6.7 SW 19 32 10 17 - - 0.0
01/01:32am 20.8 14.6 6.0 38 7.4 SW 28 48 15 26 - - 0.0
01/01:30am 21.0 14.7 5.8 37 7.6 SW 28 46 15 25 - - 0.0
01/01:00am 23.3 17.6 2.7 26 9.8 W 22 37 12 20 - - 0.0
01/12:30am 23.4 20.0 1.7 24 10.2 W 9 26 5 14 - - 0.0
01/12:00am 24.1 19.8 1.1 22 10.7 WNW 13 28 7 15 - - 0.0
 
Date/Time
EST
Temp
°C
App
Temp
°C
Dew
Point
Rel
Hum
%
Delta-T
°C
Wind Press
QNH
hPa
Press
MSL
hPa
Rain
since 9 am
mm
Dir
 
Spd
km/h
Gust
km/h
Spd
kts
Gust
kts
30/11:30pm 23.9 20.4 1.5 23 10.5 W 9 20 5 11 - - 0.0
30/11:00pm 24.2 20.8 1.8 23 10.6 NW 9 15 5 8 - - 0.0
30/10:30pm 24.7 21.1 2.8 24 10.6 NW 11 26 6 14 - - 0.0
30/10:00pm 25.3 21.8 3.3 24 10.8 NW 11 30 6 16 - - 0.0
30/09:30pm 25.9 20.9 3.8 24 11.0 NW 19 26 10 14 - - 0.0
30/09:00pm 25.3 22.5 5.0 27 10.3 NW 9 13 5 7 - - 0.0
30/08:30pm 26.5 22.5 4.9 25 11.0 WNW 15 24 8 13 - - 0.0
30/08:00pm 26.3 23.5 5.3 26 10.7 W 9 22 5 12 - - 0.0
30/07:30pm 26.5 23.9 6.0 27 10.6 NW 9 13 5 7 - - 0.0
30/07:00pm 27.0 24.4 5.9 26 11.0 NW 9 15 5 8 - - 0.0
30/06:30pm 27.8 24.3 5.4 24 11.6 NW 13 22 7 12 - - 0.0
30/06:00pm 28.7 25.1 4.9 22 12.3 NW 13 32 7 17 - - 0.0
30/05:30pm 29.7 25.7 5.1 21 12.8 NW 15 28 8 15 - - 0.0
30/05:00pm 30.5 26.1 5.0 20 13.3 WNW 17 32 9 17 - - 0.0
30/04:30pm 30.9 26.0 5.3 20 13.5 W 20 32 11 17 - - 0.0
30/04:00pm 31.4 26.6 5.8 20 13.6 W 20 28 11 15 - - 0.0
30/03:30pm 32.6 27.9 6.0 19 14.3 NW 20 35 11 19 - - 0.0
30/03:00pm 32.7 27.1 5.3 18 14.6 WNW 24 41 13 22 - - 0.0
30/02:43pm 32.8 26.1 3.7 16 15.1 WNW 28 50 15 27 - - 0.0
30/02:30pm 33.0 26.5 4.7 17 14.9 WNW 28 43 15 23 - - 0.0
30/02:21pm 32.9 26.4 4.6 17 14.9 NW 28 52 15 28 - - 0.0
30/02:00pm 32.5 28.2 5.1 18 14.5 WNW 17 24 9 13 - - 0.0
30/01:30pm 32.8 28.0 5.4 18 14.6 WNW 20 39 11 21 - - 0.0
30/01:00pm 32.8 28.2 5.4 18 14.6 WNW 19 32 10 17 - - 0.0
30/12:30pm 32.3 28.4 7.2 21 13.7 NW 17 35 9 19 - - 0.0
30/12:28pm 31.8 27.5 6.8 21 13.5 NW 19 35 10 19 - - 0.0
30/12:15pm 26.8 26.6 13.5 44 7.8 NNE 7 19 4 10 - - 0.0
30/12:00pm 31.9 27.3 5.4 19 14.0 WNW 19 37 10 20 - - 0.0
30/11:37am 31.1 24.0 5.5 20 13.5 WNW 32 46 17 25 - - 0.0
30/11:30am 30.7 28.6 9.6 27 11.9 NNW 11 26 6 14 - - 0.0
30/11:00am 28.5 27.6 13.6 40 8.9 NW 11 20 6 11 - - 0.0
30/10:57am 29.3 27.4 10.4 31 10.7 NNW 11 20 6 11 - - 0.0
30/10:30am 24.1 22.0 14.8 56 5.5 NE 19 24 10 13 - - 0.0
30/10:00am 21.5 19.4 14.6 65 4.1 NE 19 26 10 14 - - 0.0
30/09:30am 22.6 20.9 12.3 52 5.8 NE 13 17 7 9 - - 0.0
30/09:00am 22.7 21.8 11.4 49 6.3 NE 7 11 4 6 - - 0.0
30/08:30am 23.2 23.4 11.9 49 6.4 NNE 2 6 1 3 - - 0.0
30/08:00am 23.8 23.3 9.4 40 7.8 NNW 2 4 1 2 - - 0.0
30/07:30am 20.1 18.5 8.8 48 5.9 NW 7 9 4 5 - - 0.0
30/07:00am 19.6 19.1 12.8 65 3.8 NNW 7 9 4 5 - - 0.0
30/06:30am 16.4 15.1 11.3 72 2.7 N 9 9 5 5 - - 0.0
30/06:00am 15.9 14.3 11.5 75 2.4 NNW 11 13 6 7 - - 0.0
30/05:30am 16.0 14.6 12.2 78 2.1 N 11 15 6 8 - - 0.0
30/05:00am 15.4 14.1 12.5 83 1.6 NNW 11 13 6 7 - - 0.0
30/04:30am 14.8 14.3 12.5 86 1.3 NNW 7 11 4 6 - - 0.0
30/04:00am 14.8 14.3 12.5 86 1.3 N 7 9 4 5 - - 0.0
30/03:30am 14.6 14.1 12.1 85 1.4 N 6 7 3 4 - - 0.0
30/03:00am 15.6 15.2 12.9 84 1.5 N 7 11 4 6 - - 0.0
30/02:30am 15.6 14.0 12.9 84 1.5 NNW 13 17 7 9 - - 0.0
30/02:00am 16.0 14.6 13.3 84 1.5 NNW 13 19 7 10 - - 0.0
30/01:30am 15.5 13.8 12.6 83 1.6 NW 13 17 7 9 - - 0.0
30/01:00am 15.1 14.0 11.9 81 1.7 NW 9 9 5 5 - - 0.0
30/12:30am 15.1 15.1 11.3 78 2.0 NW 2 7 1 4 - - 0.0
30/12:00am 14.9 15.1 10.7 76 2.2 CALM 0 0 0 0 - - 0.0
 
Date/Time
EST
Temp
°C
App
Temp
°C
Dew
Point
Rel
Hum
%
Delta-T
°C
Wind Press
QNH
hPa
Press
MSL
hPa
Rain
since 9 am
mm
Dir
 
Spd
km/h
Gust
km/h
Spd
kts
Gust
kts
29/11:30pm 15.0 15.2 10.6 75 2.3 CALM 0 0 0 0 - - 0.0
29/11:00pm 15.4 15.7 10.8 74 2.4 CALM 0 0 0 0 - - 0.0
29/10:30pm 15.7 16.0 10.9 73 2.6 CALM 0 0 0 0 - - 0.0
29/10:00pm 16.3 16.0 11.5 73 2.6 SSW 4 6 2 3 - - 0.0
29/09:30pm 16.5 16.6 11.6 73 2.7 SW 2 4 1 2 - - 0.0
29/09:00pm 16.6 16.7 11.5 72 2.8 WSW 2 6 1 3 - - 0.0
29/08:30pm 17.6 17.0 12.3 71 2.9 S 7 11 4 6 - - 0.0
29/08:00pm 17.8 12.9 12.5 71 2.9 S 30 37 16 20 - - 0.0
29/07:30pm 18.3 15.5 12.5 69 3.2 S 19 24 10 13 - - 0.0
29/07:00pm 18.3 14.6 12.7 70 3.1 S 24 33 13 18 - - 0.0
29/06:30pm 18.4 13.1 13.1 71 3.0 S 33 44 18 24 - - 0.0
29/06:00pm 19.0 13.4 13.4 70 3.2 S 35 46 19 25 - - 0.0
29/05:30pm 19.6 14.7 13.8 69 3.3 S 32 46 17 25 - - 0.0
29/05:00pm 20.6 16.4 14.7 69 3.5 S 30 48 16 26 - - 0.0
29/04:58pm 20.6 16.9 14.9 70 3.4 S 28 48 15 26 - - 0.0
29/04:30pm 20.2 15.5 14.8 71 3.2 S 33 48 18 26 - - 0.0
29/04:06pm 25.2 19.7 12.4 45 7.4 S 33 43 18 23 - - 0.0
29/04:00pm 29.3 26.7 7.8 26 11.7 W 11 19 6 10 - - 0.0
29/03:30pm 28.4 27.3 10.1 32 10.3 WSW 6 15 3 8 - - 0.0
29/03:00pm 29.3 27.9 9.4 29 11.1 NNW 7 17 4 9 - - 0.0
29/02:30pm 30.4 26.9 7.0 23 12.6 WNW 15 30 8 16 - - 0.0
29/02:00pm 30.5 27.7 7.0 23 12.7 WNW 11 22 6 12 - - 0.0
29/01:30pm 30.3 27.3 7.5 24 12.4 W 13 22 7 12 - - 0.0
29/01:00pm 30.0 26.7 6.6 23 12.5 WNW 13 19 7 10 - - 0.0
29/12:30pm 29.8 25.4 6.5 23 12.4 W 19 30 10 16 - - 0.0
29/12:00pm 29.3 22.9 5.4 22 12.5 W 28 43 15 23 - - 0.0
29/11:30am 29.1 25.0 7.7 26 11.6 W 19 28 10 15 - - 0.0
29/11:00am 24.9 24.2 13.1 48 6.9 NNE 9 15 5 8 - - 0.0
29/10:30am 22.2 19.4 12.7 55 5.4 NNE 19 28 10 15 - - 0.0
29/10:00am 22.1 18.1 10.6 48 6.3 NNE 22 32 12 17 - - 0.0

Other Formats:

Comma delimited format used in spreadsheet applications
http://www.bom.gov.au/fwo/IDN60801/IDN60801.95749.axf

JavaScript Object Notation format (JSON) in row-major order
http://www.bom.gov.au/fwo/IDN60801/IDN60801.95749.json